sensor_id;sensor_type;location;lat;lon;timestamp;P1;durP1;ratioP1;P2;durP2;ratioP2
48795;SDS011;34607;48.520;-1.330;2022-12-07T07:33:32;25.70;;;16.08;;
48795;SDS011;34607;48.520;-1.330;2022-12-07T07:35:59;23.88;;;15.45;;
48795;SDS011;34607;48.520;-1.330;2022-12-07T07:38:27;28.77;;;17.05;;
48795;SDS011;34607;48.520;-1.330;2022-12-07T07:40:54;28.45;;;17.67;;
48795;SDS011;34607;48.520;-1.330;2022-12-07T07:43:21;29.70;;;17.77;;
48795;SDS011;34607;48.520;-1.330;2022-12-07T07:45:48;26.98;;;16.98;;
48795;SDS011;34607;48.520;-1.330;2022-12-07T07:48:16;25.33;;;16.38;;
48795;SDS011;34607;48.520;-1.330;2022-12-07T07:50:44;28.05;;;16.77;;
48795;SDS011;34607;48.520;-1.330;2022-12-07T07:53:11;29.73;;;17.80;;
48795;SDS011;34607;48.520;-1.330;2022-12-07T07:55:38;30.08;;;18.75;;
48795;SDS011;34607;48.520;-1.330;2022-12-07T07:58:05;31.55;;;18.13;;
48795;SDS011;34607;48.520;-1.330;2022-12-07T08:00:33;33.25;;;18.88;;
48795;SDS011;34607;48.520;-1.330;2022-12-07T08:03:00;32.55;;;18.77;;
48795;SDS011;34607;48.520;-1.330;2022-12-07T08:05:27;30.20;;;18.80;;
48795;SDS011;34607;48.520;-1.330;2022-12-07T08:07:55;29.23;;;18.60;;
48795;SDS011;34607;48.520;-1.330;2022-12-07T08:10:24;31.73;;;19.63;;
48795;SDS011;34607;48.520;-1.330;2022-12-07T08:12:51;33.13;;;21.23;;
48795;SDS011;34607;48.520;-1.330;2022-12-07T08:18:03;31.40;;;18.92;;
48795;SDS011;34607;48.520;-1.330;2022-12-07T08:20:31;27.70;;;18.40;;
48795;SDS011;34607;48.520;-1.330;2022-12-07T08:23:00;29.48;;;18.30;;
48795;SDS011;34607;48.520;-1.330;2022-12-07T08:25:28;32.88;;;20.45;;
48795;SDS011;34607;48.520;-1.330;2022-12-07T08:27:56;29.52;;;19.50;;
48795;SDS011;34607;48.520;-1.330;2022-12-07T08:30:23;33.00;;;18.05;;
48795;SDS011;34607;48.520;-1.330;2022-12-07T08:32:50;32.00;;;19.17;;
48795;SDS011;34607;48.520;-1.330;2022-12-07T08:35:17;29.60;;;18.63;;
48795;SDS011;34607;48.520;-1.330;2022-12-07T08:37:45;32.80;;;19.08;;
48795;SDS011;34607;48.520;-1.330;2022-12-07T08:40:14;29.50;;;18.05;;
48795;SDS011;34607;48.520;-1.330;2022-12-07T08:42:41;31.70;;;18.77;;
48795;SDS011;34607;48.520;-1.330;2022-12-07T08:45:10;34.97;;;21.95;;
48795;SDS011;34607;48.520;-1.330;2022-12-07T08:47:40;37.35;;;21.63;;
48795;SDS011;34607;48.520;-1.330;2022-12-07T08:50:10;33.70;;;20.40;;
48795;SDS011;34607;48.520;-1.330;2022-12-07T08:52:38;35.55;;;19.35;;
48795;SDS011;34607;48.520;-1.330;2022-12-07T08:55:08;45.78;;;28.90;;
48795;SDS011;34607;48.520;-1.330;2022-12-07T08:57:38;37.67;;;22.73;;
48795;SDS011;34607;48.520;-1.330;2022-12-07T09:00:08;36.55;;;21.63;;
48795;SDS011;34607;48.520;-1.330;2022-12-07T09:02:36;32.80;;;20.65;;
48795;SDS011;34607;48.520;-1.330;2022-12-07T09:05:03;28.77;;;18.60;;
48795;SDS011;34607;48.520;-1.330;2022-12-07T09:07:31;28.27;;;18.00;;
48795;SDS011;34607;48.520;-1.330;2022-12-07T09:10:00;30.00;;;19.45;;
48795;SDS011;34607;48.520;-1.330;2022-12-07T09:12:27;30.23;;;18.77;;
48795;SDS011;34607;48.520;-1.330;2022-12-07T09:14:57;37.20;;;21.17;;
48795;SDS011;34607;48.520;-1.330;2022-12-07T09:17:25;32.75;;;21.23;;
48795;SDS011;34607;48.520;-1.330;2022-12-07T09:19:53;34.03;;;20.95;;
48795;SDS011;34607;48.520;-1.330;2022-12-07T09:22:20;31.80;;;19.52;;
48795;SDS011;34607;48.520;-1.330;2022-12-07T09:24:48;34.17;;;20.85;;
48795;SDS011;34607;48.520;-1.330;2022-12-07T09:27:15;32.95;;;20.90;;
48795;SDS011;34607;48.520;-1.330;2022-12-07T09:29:43;34.60;;;21.27;;
48795;SDS011;34607;48.520;-1.330;2022-12-07T09:32:11;35.45;;;21.08;;
48795;SDS011;34607;48.520;-1.330;2022-12-07T09:34:38;32.40;;;20.80;;
48795;SDS011;34607;48.520;-1.330;2022-12-07T09:37:05;32.92;;;22.45;;
48795;SDS011;34607;48.520;-1.330;2022-12-07T09:39:33;36.58;;;22.85;;
48795;SDS011;34607;48.520;-1.330;2022-12-07T09:42:02;32.75;;;20.58;;
48795;SDS011;34607;48.520;-1.330;2022-12-07T09:44:31;35.60;;;21.20;;
48795;SDS011;34607;48.520;-1.330;2022-12-07T09:46:59;36.00;;;21.38;;
48795;SDS011;34607;48.520;-1.330;2022-12-07T09:49:29;37.00;;;23.85;;
48795;SDS011;34607;48.520;-1.330;2022-12-07T09:51:59;36.35;;;21.60;;
48795;SDS011;34607;48.520;-1.330;2022-12-07T09:54:29;36.15;;;21.55;;
48795;SDS011;34607;48.520;-1.330;2022-12-07T09:56:57;35.10;;;21.50;;
48795;SDS011;34607;48.520;-1.330;2022-12-07T09:59:25;30.15;;;20.70;;
48795;SDS011;34607;48.520;-1.330;2022-12-07T10:01:52;36.33;;;22.40;;
48795;SDS011;34607;48.520;-1.330;2022-12-07T10:04:20;32.90;;;21.52;;
48795;SDS011;34607;48.520;-1.330;2022-12-07T10:06:50;32.70;;;20.60;;
48795;SDS011;34607;48.520;-1.330;2022-12-07T10:09:18;33.22;;;21.63;;
48795;SDS011;34607;48.520;-1.330;2022-12-07T10:11:57;33.47;;;20.05;;
48795;SDS011;34607;48.520;-1.330;2022-12-07T10:14:25;29.65;;;19.88;;
48795;SDS011;34607;48.520;-1.330;2022-12-07T10:16:54;32.28;;;20.27;;
48795;SDS011;34607;48.520;-1.330;2022-12-07T10:19:26;28.98;;;18.67;;
48795;SDS011;34607;48.520;-1.330;2022-12-07T10:22:09;31.05;;;18.73;;
48795;SDS011;34607;48.520;-1.330;2022-12-07T10:24:37;29.95;;;18.58;;
48795;SDS011;34607;48.520;-1.330;2022-12-07T10:27:12;28.25;;;17.42;;
48795;SDS011;34607;48.520;-1.330;2022-12-07T10:29:47;30.58;;;18.23;;
48795;SDS011;34607;48.520;-1.330;2022-12-07T10:32:30;24.95;;;16.67;;
48795;SDS011;34607;48.520;-1.330;2022-12-07T10:37:55;26.48;;;17.42;;
48795;SDS011;34607;48.520;-1.330;2022-12-07T10:40:24;26.20;;;17.45;;
48795;SDS011;34607;48.520;-1.330;2022-12-07T10:43:01;38.63;;;25.20;;
48795;SDS011;34607;48.520;-1.330;2022-12-07T10:45:41;77.93;;;47.25;;
48795;SDS011;34607;48.520;-1.330;2022-12-07T10:48:33;39.08;;;26.60;;
48795;SDS011;34607;48.520;-1.330;2022-12-07T10:51:06;28.75;;;19.63;;
48795;SDS011;34607;48.520;-1.330;2022-12-07T10:53:49;24.60;;;18.38;;
48795;SDS011;34607;48.520;-1.330;2022-12-07T10:56:29;21.90;;;16.45;;
48795;SDS011;34607;48.520;-1.330;2022-12-07T11:01:54;19.67;;;14.05;;
48795;SDS011;34607;48.520;-1.330;2022-12-07T11:04:35;17.13;;;11.57;;
48795;SDS011;34607;48.520;-1.330;2022-12-07T11:07:10;21.23;;;14.20;;
48795;SDS011;34607;48.520;-1.330;2022-12-07T11:09:53;19.58;;;13.15;;
48795;SDS011;34607;48.520;-1.330;2022-12-07T11:12:33;19.67;;;12.20;;
48795;SDS011;34607;48.520;-1.330;2022-12-07T11:15:17;16.50;;;11.88;;
48795;SDS011;34607;48.520;-1.330;2022-12-07T11:17:56;20.00;;;14.23;;
48795;SDS011;34607;48.520;-1.330;2022-12-07T11:20:34;19.77;;;13.02;;
48795;SDS011;34607;48.520;-1.330;2022-12-07T11:23:13;15.70;;;11.40;;
48795;SDS011;34607;48.520;-1.330;2022-12-07T11:25:52;10.95;;;7.60;;
48795;SDS011;34607;48.520;-1.330;2022-12-07T11:28:31;9.20;;;6.88;;
48795;SDS011;34607;48.520;-1.330;2022-12-07T11:31:12;9.73;;;6.90;;
48795;SDS011;34607;48.520;-1.330;2022-12-07T11:33:49;9.90;;;7.53;;
48795;SDS011;34607;48.520;-1.330;2022-12-07T11:36:31;10.02;;;6.35;;
48795;SDS011;34607;48.520;-1.330;2022-12-07T11:39:04;12.35;;;9.18;;
48795;SDS011;34607;48.520;-1.330;2022-12-07T11:41:41;10.45;;;6.78;;
48795;SDS011;34607;48.520;-1.330;2022-12-07T11:44:22;8.60;;;7.15;;
48795;SDS011;34607;48.520;-1.330;2022-12-07T11:46:58;8.93;;;7.35;;
48795;SDS011;34607;48.520;-1.330;2022-12-07T11:49:33;7.80;;;6.22;;
48795;SDS011;34607;48.520;-1.330;2022-12-07T11:52:09;6.68;;;5.57;;
48795;SDS011;34607;48.520;-1.330;2022-12-07T11:54:44;8.02;;;5.38;;
48795;SDS011;34607;48.520;-1.330;2022-12-07T11:57:16;6.18;;;3.92;;
48795;SDS011;34607;48.520;-1.330;2022-12-07T11:59:48;7.18;;;4.18;;
48795;SDS011;34607;48.520;-1.330;2022-12-07T12:02:20;5.32;;;4.28;;
48795;SDS011;34607;48.520;-1.330;2022-12-07T12:04:51;4.60;;;3.28;;
48795;SDS011;34607;48.520;-1.330;2022-12-07T12:09:54;4.07;;;3.53;;
48795;SDS011;34607;48.520;-1.330;2022-12-07T12:12:31;7.82;;;4.30;;
48795;SDS011;34607;48.520;-1.330;2022-12-07T12:15:16;5.22;;;4.72;;
48795;SDS011;34607;48.520;-1.330;2022-12-07T12:20:57;5.40;;;4.20;;
48795;SDS011;34607;48.520;-1.330;2022-12-07T12:23:32;5.75;;;3.88;;
48795;SDS011;34607;48.520;-1.330;2022-12-07T12:26:06;5.63;;;4.22;;
48795;SDS011;34607;48.520;-1.330;2022-12-07T12:28:48;7.22;;;4.20;;
48795;SDS011;34607;48.520;-1.330;2022-12-07T12:31:29;5.78;;;3.67;;
48795;SDS011;34607;48.520;-1.330;2022-12-07T12:34:01;5.38;;;3.65;;
48795;SDS011;34607;48.520;-1.330;2022-12-07T12:36:43;6.55;;;3.10;;
48795;SDS011;34607;48.520;-1.330;2022-12-07T12:39:12;6.90;;;3.20;;
48795;SDS011;34607;48.520;-1.330;2022-12-07T12:41:54;7.65;;;4.60;;
48795;SDS011;34607;48.520;-1.330;2022-12-07T12:44:41;6.65;;;4.70;;
48795;SDS011;34607;48.520;-1.330;2022-12-07T12:47:40;4.38;;;3.40;;
48795;SDS011;34607;48.520;-1.330;2022-12-07T12:50:19;6.80;;;4.25;;
48795;SDS011;34607;48.520;-1.330;2022-12-07T13:01:50;5.40;;;4.25;;
48795;SDS011;34607;48.520;-1.330;2022-12-07T13:04:39;3.95;;;3.45;;
48795;SDS011;34607;48.520;-1.330;2022-12-07T13:10:25;5.68;;;3.80;;
48795;SDS011;34607;48.520;-1.330;2022-12-07T13:13:03;5.32;;;4.40;;
48795;SDS011;34607;48.520;-1.330;2022-12-07T13:15:33;5.43;;;4.40;;
48795;SDS011;34607;48.520;-1.330;2022-12-07T13:18:04;5.88;;;4.90;;
48795;SDS011;34607;48.520;-1.330;2022-12-07T13:20:50;7.10;;;4.93;;
48795;SDS011;34607;48.520;-1.330;2022-12-07T13:23:22;7.97;;;4.95;;
48795;SDS011;34607;48.520;-1.330;2022-12-07T13:25:54;6.82;;;5.30;;
48795;SDS011;34607;48.520;-1.330;2022-12-07T13:28:27;7.28;;;4.80;;
48795;SDS011;34607;48.520;-1.330;2022-12-07T13:31:04;6.43;;;4.75;;
48795;SDS011;34607;48.520;-1.330;2022-12-07T13:33:41;6.07;;;4.25;;
48795;SDS011;34607;48.520;-1.330;2022-12-07T13:36:12;7.18;;;4.50;;
48795;SDS011;34607;48.520;-1.330;2022-12-07T13:38:49;5.28;;;4.60;;
48795;SDS011;34607;48.520;-1.330;2022-12-07T13:41:23;5.18;;;4.28;;
48795;SDS011;34607;48.520;-1.330;2022-12-07T13:43:53;5.18;;;3.85;;
48795;SDS011;34607;48.520;-1.330;2022-12-07T13:46:30;8.30;;;4.45;;
48795;SDS011;34607;48.520;-1.330;2022-12-07T13:49:15;8.13;;;5.47;;
48795;SDS011;34607;48.520;-1.330;2022-12-07T13:51:45;8.88;;;5.47;;
48795;SDS011;34607;48.520;-1.330;2022-12-07T13:54:12;7.80;;;5.13;;
48795;SDS011;34607;48.520;-1.330;2022-12-07T13:56:41;8.68;;;6.00;;
48795;SDS011;34607;48.520;-1.330;2022-12-07T13:59:12;8.45;;;7.40;;
48795;SDS011;34607;48.520;-1.330;2022-12-07T14:01:42;9.23;;;6.75;;
48795;SDS011;34607;48.520;-1.330;2022-12-07T14:04:19;9.23;;;6.57;;
48795;SDS011;34607;48.520;-1.330;2022-12-07T14:06:56;8.10;;;6.32;;
48795;SDS011;34607;48.520;-1.330;2022-12-07T14:09:24;8.55;;;6.03;;
48795;SDS011;34607;48.520;-1.330;2022-12-07T14:11:53;10.20;;;5.85;;
48795;SDS011;34607;48.520;-1.330;2022-12-07T14:14:22;8.45;;;6.35;;
48795;SDS011;34607;48.520;-1.330;2022-12-07T14:16:55;6.80;;;5.32;;
48795;SDS011;34607;48.520;-1.330;2022-12-07T14:22:21;9.98;;;7.22;;
48795;SDS011;34607;48.520;-1.330;2022-12-07T14:24:51;9.75;;;6.03;;
48795;SDS011;34607;48.520;-1.330;2022-12-07T14:27:29;7.53;;;5.68;;
48795;SDS011;34607;48.520;-1.330;2022-12-07T14:29:59;12.88;;;6.57;;
48795;SDS011;34607;48.520;-1.330;2022-12-07T14:32:27;10.75;;;7.05;;
48795;SDS011;34607;48.520;-1.330;2022-12-07T14:34:58;7.93;;;6.38;;
48795;SDS011;34607;48.520;-1.330;2022-12-07T14:37:27;8.18;;;6.00;;
48795;SDS011;34607;48.520;-1.330;2022-12-07T14:39:55;8.02;;;6.30;;
48795;SDS011;34607;48.520;-1.330;2022-12-07T14:42:23;6.68;;;5.95;;
48795;SDS011;34607;48.520;-1.330;2022-12-07T14:44:53;8.75;;;6.97;;
48795;SDS011;34607;48.520;-1.330;2022-12-07T14:47:21;10.40;;;8.73;;
48795;SDS011;34607;48.520;-1.330;2022-12-07T14:49:49;9.80;;;7.28;;
48795;SDS011;34607;48.520;-1.330;2022-12-07T14:52:18;9.02;;;6.45;;
48795;SDS011;34607;48.520;-1.330;2022-12-07T14:54:48;10.40;;;6.85;;
48795;SDS011;34607;48.520;-1.330;2022-12-07T14:57:15;7.30;;;6.43;;
48795;SDS011;34607;48.520;-1.330;2022-12-07T14:59:42;12.60;;;6.13;;
48795;SDS011;34607;48.520;-1.330;2022-12-07T15:02:09;9.98;;;6.55;;
48795;SDS011;34607;48.520;-1.330;2022-12-07T15:04:38;6.47;;;5.82;;
48795;SDS011;34607;48.520;-1.330;2022-12-07T15:07:06;6.57;;;5.57;;
48795;SDS011;34607;48.520;-1.330;2022-12-07T15:09:40;7.95;;;6.53;;
48795;SDS011;34607;48.520;-1.330;2022-12-07T15:12:07;11.57;;;10.02;;
48795;SDS011;34607;48.520;-1.330;2022-12-07T15:14:35;15.93;;;12.57;;
48795;SDS011;34607;48.520;-1.330;2022-12-07T15:17:02;23.02;;;16.02;;
48795;SDS011;34607;48.520;-1.330;2022-12-07T15:19:29;32.10;;;22.27;;
48795;SDS011;34607;48.520;-1.330;2022-12-07T15:21:56;27.13;;;20.63;;
48795;SDS011;34607;48.520;-1.330;2022-12-07T15:24:25;31.27;;;22.60;;
48795;SDS011;34607;48.520;-1.330;2022-12-07T15:26:54;30.52;;;22.58;;
48795;SDS011;34607;48.520;-1.330;2022-12-07T15:29:21;26.52;;;20.45;;
48795;SDS011;34607;48.520;-1.330;2022-12-07T15:31:49;27.42;;;19.23;;
48795;SDS011;34607;48.520;-1.330;2022-12-07T15:34:16;23.92;;;17.48;;
48795;SDS011;34607;48.520;-1.330;2022-12-07T15:36:43;26.40;;;18.92;;
48795;SDS011;34607;48.520;-1.330;2022-12-07T15:39:10;34.58;;;21.98;;
48795;SDS011;34607;48.520;-1.330;2022-12-07T15:41:38;31.13;;;22.65;;
48795;SDS011;34607;48.520;-1.330;2022-12-07T15:44:08;32.05;;;21.77;;
48795;SDS011;34607;48.520;-1.330;2022-12-07T15:46:54;28.35;;;20.10;;
48795;SDS011;34607;48.520;-1.330;2022-12-07T15:49:21;34.50;;;22.55;;
48795;SDS011;34607;48.520;-1.330;2022-12-07T15:51:48;29.58;;;20.90;;
48795;SDS011;34607;48.520;-1.330;2022-12-07T15:54:16;33.80;;;21.15;;
48795;SDS011;34607;48.520;-1.330;2022-12-07T15:56:46;35.78;;;24.33;;
48795;SDS011;34607;48.520;-1.330;2022-12-07T15:59:14;35.25;;;23.05;;
48795;SDS011;34607;48.520;-1.330;2022-12-07T16:01:42;35.40;;;24.45;;
48795;SDS011;34607;48.520;-1.330;2022-12-07T16:04:09;34.33;;;23.00;;
48795;SDS011;34607;48.520;-1.330;2022-12-07T16:06:37;37.42;;;25.40;;
48795;SDS011;34607;48.520;-1.330;2022-12-07T16:09:04;36.67;;;24.63;;
48795;SDS011;34607;48.520;-1.330;2022-12-07T16:11:32;34.55;;;23.13;;
48795;SDS011;34607;48.520;-1.330;2022-12-07T16:13:59;33.00;;;21.80;;
48795;SDS011;34607;48.520;-1.330;2022-12-07T16:16:28;33.75;;;22.02;;
48795;SDS011;34607;48.520;-1.330;2022-12-07T16:18:57;32.75;;;23.98;;
48795;SDS011;34607;48.520;-1.330;2022-12-07T16:21:24;34.22;;;23.67;;
48795;SDS011;34607;48.520;-1.330;2022-12-07T16:23:51;38.67;;;25.38;;
48795;SDS011;34607;48.520;-1.330;2022-12-07T16:26:19;33.22;;;26.35;;
48795;SDS011;34607;48.520;-1.330;2022-12-07T16:28:48;37.15;;;27.27;;
48795;SDS011;34607;48.520;-1.330;2022-12-07T16:31:16;41.58;;;26.55;;
48795;SDS011;34607;48.520;-1.330;2022-12-07T16:33:46;37.40;;;25.92;;
48795;SDS011;34607;48.520;-1.330;2022-12-07T16:36:14;34.17;;;23.02;;
48795;SDS011;34607;48.520;-1.330;2022-12-07T16:38:42;34.28;;;24.02;;
48795;SDS011;34607;48.520;-1.330;2022-12-07T16:41:10;35.72;;;21.48;;
48795;SDS011;34607;48.520;-1.330;2022-12-07T16:43:37;32.03;;;21.92;;
48795;SDS011;34607;48.520;-1.330;2022-12-07T16:46:04;37.92;;;24.02;;
48795;SDS011;34607;48.520;-1.330;2022-12-07T16:48:32;34.65;;;24.00;;
48795;SDS011;34607;48.520;-1.330;2022-12-07T16:51:03;35.25;;;21.58;;
48795;SDS011;34607;48.520;-1.330;2022-12-07T16:53:31;33.00;;;22.10;;
48795;SDS011;34607;48.520;-1.330;2022-12-07T16:55:58;31.77;;;22.63;;
48795;SDS011;34607;48.520;-1.330;2022-12-07T16:58:25;39.50;;;27.73;;
48795;SDS011;34607;48.520;-1.330;2022-12-07T17:00:53;34.00;;;23.30;;
48795;SDS011;34607;48.520;-1.330;2022-12-07T17:03:20;34.17;;;22.92;;
48795;SDS011;34607;48.520;-1.330;2022-12-07T17:05:47;31.63;;;21.85;;
48795;SDS011;34607;48.520;-1.330;2022-12-07T17:08:16;30.67;;;21.63;;
48795;SDS011;34607;48.520;-1.330;2022-12-07T17:10:43;27.33;;;20.65;;
48795;SDS011;34607;48.520;-1.330;2022-12-07T17:13:11;34.42;;;23.50;;
48795;SDS011;34607;48.520;-1.330;2022-12-07T17:15:57;35.92;;;24.33;;
48795;SDS011;34607;48.520;-1.330;2022-12-07T17:18:26;37.63;;;26.88;;
48795;SDS011;34607;48.520;-1.330;2022-12-07T17:20:54;47.47;;;33.15;;
48795;SDS011;34607;48.520;-1.330;2022-12-07T17:23:22;44.53;;;29.52;;
48795;SDS011;34607;48.520;-1.330;2022-12-07T17:25:51;39.70;;;27.67;;
48795;SDS011;34607;48.520;-1.330;2022-12-07T17:28:18;33.05;;;23.50;;
48795;SDS011;34607;48.520;-1.330;2022-12-07T17:30:46;44.40;;;23.30;;
48795;SDS011;34607;48.520;-1.330;2022-12-07T17:33:13;30.08;;;22.13;;
48795;SDS011;34607;48.520;-1.330;2022-12-07T17:35:40;32.80;;;21.30;;
48795;SDS011;34607;48.520;-1.330;2022-12-07T17:38:08;30.20;;;21.38;;
48795;SDS011;34607;48.520;-1.330;2022-12-07T17:40:36;29.15;;;21.20;;
48795;SDS011;34607;48.520;-1.330;2022-12-07T17:43:03;30.40;;;20.90;;
48795;SDS011;34607;48.520;-1.330;2022-12-07T17:45:30;28.80;;;20.80;;
48795;SDS011;34607;48.520;-1.330;2022-12-07T17:47:58;33.92;;;23.27;;
48795;SDS011;34607;48.520;-1.330;2022-12-07T17:50:25;33.05;;;24.60;;
48795;SDS011;34607;48.520;-1.330;2022-12-07T17:53:10;33.80;;;23.85;;
48795;SDS011;34607;48.520;-1.330;2022-12-07T17:55:39;34.55;;;23.02;;
48795;SDS011;34607;48.520;-1.330;2022-12-07T17:58:06;33.85;;;23.13;;
48795;SDS011;34607;48.520;-1.330;2022-12-07T18:00:33;35.08;;;24.33;;
48795;SDS011;34607;48.520;-1.330;2022-12-07T18:03:04;32.35;;;22.85;;
48795;SDS011;34607;48.520;-1.330;2022-12-07T18:05:34;33.97;;;23.67;;
48795;SDS011;34607;48.520;-1.330;2022-12-07T18:08:02;37.67;;;27.15;;
48795;SDS011;34607;48.520;-1.330;2022-12-07T18:10:30;41.97;;;29.88;;
48795;SDS011;34607;48.520;-1.330;2022-12-07T18:12:59;45.90;;;32.65;;
48795;SDS011;34607;48.520;-1.330;2022-12-07T18:15:43;36.40;;;25.42;;
48795;SDS011;34607;48.520;-1.330;2022-12-07T18:18:10;40.45;;;27.65;;
48795;SDS011;34607;48.520;-1.330;2022-12-07T18:20:37;37.80;;;26.55;;
48795;SDS011;34607;48.520;-1.330;2022-12-07T18:23:04;33.85;;;23.88;;
48795;SDS011;34607;48.520;-1.330;2022-12-07T18:25:31;36.17;;;27.00;;
48795;SDS011;34607;48.520;-1.330;2022-12-07T18:28:00;37.13;;;26.23;;
48795;SDS011;34607;48.520;-1.330;2022-12-07T18:30:27;37.85;;;29.35;;
48795;SDS011;34607;48.520;-1.330;2022-12-07T18:32:54;41.83;;;30.38;;
48795;SDS011;34607;48.520;-1.330;2022-12-07T18:35:21;37.63;;;27.88;;
48795;SDS011;34607;48.520;-1.330;2022-12-07T18:37:49;40.47;;;29.05;;
48795;SDS011;34607;48.520;-1.330;2022-12-07T18:40:16;39.80;;;29.38;;
48795;SDS011;34607;48.520;-1.330;2022-12-07T18:42:43;39.35;;;29.35;;
48795;SDS011;34607;48.520;-1.330;2022-12-07T18:45:12;42.25;;;30.55;;
48795;SDS011;34607;48.520;-1.330;2022-12-07T18:47:39;43.25;;;32.47;;
48795;SDS011;34607;48.520;-1.330;2022-12-07T18:50:07;43.20;;;31.95;;
48795;SDS011;34607;48.520;-1.330;2022-12-07T18:52:35;37.35;;;27.73;;
48795;SDS011;34607;48.520;-1.330;2022-12-07T18:55:02;39.97;;;29.75;;
48795;SDS011;34607;48.520;-1.330;2022-12-07T18:57:30;38.70;;;26.27;;
48795;SDS011;34607;48.520;-1.330;2022-12-07T18:59:58;33.95;;;26.70;;
48795;SDS011;34607;48.520;-1.330;2022-12-07T19:02:26;39.10;;;27.98;;
48795;SDS011;34607;48.520;-1.330;2022-12-07T19:04:53;34.58;;;24.65;;
48795;SDS011;34607;48.520;-1.330;2022-12-07T19:07:20;36.97;;;24.48;;
48795;SDS011;34607;48.520;-1.330;2022-12-07T19:09:48;34.53;;;24.52;;
48795;SDS011;34607;48.520;-1.330;2022-12-07T19:12:15;33.30;;;22.38;;
48795;SDS011;34607;48.520;-1.330;2022-12-07T19:14:42;44.47;;;29.42;;
48795;SDS011;34607;48.520;-1.330;2022-12-07T19:17:10;41.40;;;28.60;;
48795;SDS011;34607;48.520;-1.330;2022-12-07T19:19:40;37.42;;;27.17;;
48795;SDS011;34607;48.520;-1.330;2022-12-07T19:22:09;48.28;;;30.52;;
48795;SDS011;34607;48.520;-1.330;2022-12-07T19:24:37;42.83;;;29.33;;
48795;SDS011;34607;48.520;-1.330;2022-12-07T19:27:05;47.10;;;30.80;;
48795;SDS011;34607;48.520;-1.330;2022-12-07T19:29:33;39.78;;;28.25;;
48795;SDS011;34607;48.520;-1.330;2022-12-07T19:32:01;44.67;;;30.38;;
48795;SDS011;34607;48.520;-1.330;2022-12-07T19:34:30;43.58;;;29.33;;
48795;SDS011;34607;48.520;-1.330;2022-12-07T19:36:58;38.00;;;26.90;;
48795;SDS011;34607;48.520;-1.330;2022-12-07T19:39:25;41.42;;;27.75;;
48795;SDS011;34607;48.520;-1.330;2022-12-07T19:41:54;42.97;;;29.35;;
48795;SDS011;34607;48.520;-1.330;2022-12-07T19:44:22;44.97;;;29.85;;
48795;SDS011;34607;48.520;-1.330;2022-12-07T19:46:51;42.25;;;29.20;;
48795;SDS011;34607;48.520;-1.330;2022-12-07T19:49:21;51.28;;;31.25;;
48795;SDS011;34607;48.520;-1.330;2022-12-07T19:51:50;44.22;;;28.70;;
48795;SDS011;34607;48.520;-1.330;2022-12-07T19:54:21;38.40;;;25.48;;
48795;SDS011;34607;48.520;-1.330;2022-12-07T19:56:50;32.35;;;25.42;;
48795;SDS011;34607;48.520;-1.330;2022-12-07T19:59:18;37.25;;;26.15;;
48795;SDS011;34607;48.520;-1.330;2022-12-07T20:01:47;32.97;;;23.58;;
48795;SDS011;34607;48.520;-1.330;2022-12-07T20:04:15;34.60;;;24.95;;
48795;SDS011;34607;48.520;-1.330;2022-12-07T20:06:44;48.53;;;35.15;;
48795;SDS011;34607;48.520;-1.330;2022-12-07T20:09:12;44.50;;;32.40;;
48795;SDS011;34607;48.520;-1.330;2022-12-07T20:11:41;41.33;;;31.67;;
48795;SDS011;34607;48.520;-1.330;2022-12-07T20:14:25;46.75;;;32.92;;
48795;SDS011;34607;48.520;-1.330;2022-12-07T20:16:52;38.65;;;29.40;;
48795;SDS011;34607;48.520;-1.330;2022-12-07T20:19:19;39.15;;;28.02;;
48795;SDS011;34607;48.520;-1.330;2022-12-07T20:21:46;33.65;;;25.35;;
48795;SDS011;34607;48.520;-1.330;2022-12-07T20:24:16;37.42;;;27.08;;
48795;SDS011;34607;48.520;-1.330;2022-12-07T20:26:47;31.30;;;23.17;;
48795;SDS011;34607;48.520;-1.330;2022-12-07T20:29:16;37.05;;;26.15;;
48795;SDS011;34607;48.520;-1.330;2022-12-07T20:31:45;40.03;;;28.17;;
48795;SDS011;34607;48.520;-1.330;2022-12-07T20:34:13;33.83;;;25.05;;
48795;SDS011;34607;48.520;-1.330;2022-12-07T20:36:40;30.73;;;23.42;;
48795;SDS011;34607;48.520;-1.330;2022-12-07T20:39:08;36.33;;;24.70;;
48795;SDS011;34607;48.520;-1.330;2022-12-07T20:41:35;33.20;;;23.85;;
48795;SDS011;34607;48.520;-1.330;2022-12-07T20:44:21;33.40;;;22.42;;
48795;SDS011;34607;48.520;-1.330;2022-12-07T20:46:48;28.02;;;22.08;;
48795;SDS011;34607;48.520;-1.330;2022-12-07T20:49:15;35.78;;;25.13;;
48795;SDS011;34607;48.520;-1.330;2022-12-07T20:51:43;30.58;;;23.10;;
48795;SDS011;34607;48.520;-1.330;2022-12-07T20:54:10;28.40;;;21.55;;
48795;SDS011;34607;48.520;-1.330;2022-12-07T20:56:38;26.77;;;20.75;;
48795;SDS011;34607;48.520;-1.330;2022-12-07T20:59:06;28.05;;;20.83;;
48795;SDS011;34607;48.520;-1.330;2022-12-07T21:01:36;28.35;;;19.67;;
48795;SDS011;34607;48.520;-1.330;2022-12-07T21:04:04;30.63;;;19.33;;
48795;SDS011;34607;48.520;-1.330;2022-12-07T21:06:31;25.05;;;17.75;;
48795;SDS011;34607;48.520;-1.330;2022-12-07T21:08:58;25.77;;;19.27;;
48795;SDS011;34607;48.520;-1.330;2022-12-07T21:11:27;21.67;;;17.58;;
48795;SDS011;34607;48.520;-1.330;2022-12-07T21:13:55;25.98;;;19.90;;
48795;SDS011;34607;48.520;-1.330;2022-12-07T21:16:23;25.77;;;18.77;;
48795;SDS011;34607;48.520;-1.330;2022-12-07T21:18:53;26.38;;;18.65;;
48795;SDS011;34607;48.520;-1.330;2022-12-07T21:21:21;26.27;;;19.27;;
48795;SDS011;34607;48.520;-1.330;2022-12-07T21:23:48;24.13;;;18.38;;
48795;SDS011;34607;48.520;-1.330;2022-12-07T21:26:17;27.17;;;19.52;;
48795;SDS011;34607;48.520;-1.330;2022-12-07T21:28:47;21.85;;;16.73;;
48795;SDS011;34607;48.520;-1.330;2022-12-07T21:31:15;20.35;;;16.48;;
48795;SDS011;34607;48.520;-1.330;2022-12-07T21:33:43;25.88;;;17.98;;
48795;SDS011;34607;48.520;-1.330;2022-12-07T21:36:13;27.02;;;17.77;;
48795;SDS011;34607;48.520;-1.330;2022-12-07T21:38:42;26.92;;;18.45;;
48795;SDS011;34607;48.520;-1.330;2022-12-07T21:41:10;18.75;;;15.57;;
48795;SDS011;34607;48.520;-1.330;2022-12-07T21:43:38;21.48;;;16.25;;
48795;SDS011;34607;48.520;-1.330;2022-12-07T21:46:05;24.20;;;17.52;;
48795;SDS011;34607;48.520;-1.330;2022-12-07T21:48:32;26.02;;;19.20;;
48795;SDS011;34607;48.520;-1.330;2022-12-07T21:51:03;25.00;;;18.08;;
48795;SDS011;34607;48.520;-1.330;2022-12-07T21:53:32;23.27;;;18.67;;
48795;SDS011;34607;48.520;-1.330;2022-12-07T21:56:00;21.40;;;18.10;;
48795;SDS011;34607;48.520;-1.330;2022-12-07T21:58:27;29.15;;;18.38;;
48795;SDS011;34607;48.520;-1.330;2022-12-07T22:00:54;21.88;;;16.35;;
48795;SDS011;34607;48.520;-1.330;2022-12-07T22:03:21;24.35;;;17.98;;
48795;SDS011;34607;48.520;-1.330;2022-12-07T22:05:48;20.85;;;16.67;;
48795;SDS011;34607;48.520;-1.330;2022-12-07T22:08:16;22.48;;;16.98;;
48795;SDS011;34607;48.520;-1.330;2022-12-07T22:10:45;23.30;;;18.40;;
48795;SDS011;34607;48.520;-1.330;2022-12-07T22:13:12;25.27;;;19.95;;
48795;SDS011;34607;48.520;-1.330;2022-12-07T22:15:39;24.85;;;17.90;;
48795;SDS011;34607;48.520;-1.330;2022-12-07T22:18:06;24.42;;;20.20;;
48795;SDS011;34607;48.520;-1.330;2022-12-07T22:20:34;25.25;;;18.83;;
48795;SDS011;34607;48.520;-1.330;2022-12-07T22:23:01;22.73;;;16.23;;
48795;SDS011;34607;48.520;-1.330;2022-12-07T22:25:28;23.65;;;16.80;;
48795;SDS011;34607;48.520;-1.330;2022-12-07T22:27:56;22.60;;;17.05;;
48795;SDS011;34607;48.520;-1.330;2022-12-07T22:30:24;27.10;;;18.83;;
48795;SDS011;34607;48.520;-1.330;2022-12-07T22:32:51;22.65;;;17.13;;